createdAt,value
2023-04-12T00:01:07.332Z,100.00
2023-04-12T00:03:34.917Z,100.00
2023-04-12T00:06:03.679Z,100.00
2023-04-12T00:08:33.939Z,100.00
2023-04-12T00:11:02.981Z,100.00
2023-04-12T00:13:30.645Z,100.00
2023-04-12T00:15:57.576Z,100.00
2023-04-12T00:18:25.903Z,100.00
2023-04-12T00:20:53.464Z,100.00
2023-04-12T00:23:20.907Z,100.00
2023-04-12T00:25:48.252Z,100.00
2023-04-12T00:28:18.857Z,100.00
2023-04-12T00:30:46.575Z,100.00
2023-04-12T00:33:13.581Z,100.00
2023-04-12T00:35:40.579Z,100.00
2023-04-12T00:38:11.028Z,100.00
2023-04-12T00:40:43.020Z,100.00
2023-04-12T00:43:19.008Z,100.00
2023-04-12T00:45:47.497Z,100.00
2023-04-12T00:48:16.461Z,100.00
2023-04-12T00:50:45.039Z,100.00
2023-04-12T00:53:14.483Z,100.00
2023-04-12T00:55:44.920Z,100.00
2023-04-12T00:58:12.430Z,99.46
2023-04-12T01:00:39.379Z,98.97
2023-04-12T01:03:08.683Z,98.24
2023-04-12T01:05:49.416Z,97.80
2023-04-12T01:08:49.121Z,97.81
2023-04-12T01:11:29.389Z,97.48
2023-04-12T01:14:07.929Z,97.36
2023-04-12T01:16:44.665Z,97.45
2023-04-12T01:19:31.786Z,97.30
2023-04-12T01:22:19.155Z,97.05
2023-04-12T01:25:13.217Z,97.10
2023-04-12T01:27:47.023Z,97.36
2023-04-12T01:30:18.280Z,97.23
2023-04-12T01:32:51.813Z,97.38
2023-04-12T01:35:21.933Z,97.30
2023-04-12T01:37:48.900Z,97.20
2023-04-12T01:40:16.318Z,97.22
2023-04-12T01:42:43.214Z,97.57
2023-04-12T01:45:10.818Z,97.65
2023-04-12T01:47:38.802Z,98.03
2023-04-12T01:50:08.647Z,98.04
2023-04-12T01:52:41.392Z,98.03
2023-04-12T01:55:10.717Z,97.74
2023-04-12T01:57:39.249Z,97.60
2023-04-12T02:00:11.086Z,97.24
2023-04-12T02:02:40.269Z,96.67
2023-04-12T02:05:09.777Z,96.15
2023-04-12T02:07:37.561Z,96.52
2023-04-12T02:10:04.877Z,96.14
2023-04-12T02:12:32.098Z,96.26
2023-04-12T02:14:59.008Z,95.99
2023-04-12T02:17:26.124Z,96.06
2023-04-12T02:19:53.199Z,96.15
2023-04-12T02:22:20.103Z,95.89
2023-04-12T02:24:48.032Z,96.22
2023-04-12T02:27:14.890Z,96.70
2023-04-12T02:29:41.757Z,96.64
2023-04-12T02:32:08.591Z,96.70
2023-04-12T02:34:36.899Z,97.12
2023-04-12T02:37:04.961Z,97.08
2023-04-12T02:39:32.530Z,96.89
2023-04-12T02:41:59.417Z,97.06
2023-04-12T02:44:26.339Z,96.88
2023-04-12T02:46:53.287Z,96.95
2023-04-12T02:49:20.352Z,97.09
2023-04-12T02:51:47.495Z,96.65
2023-04-12T02:54:14.732Z,96.72
2023-04-12T02:56:41.577Z,96.53
2023-04-12T02:59:08.560Z,96.97
2023-04-12T03:01:35.693Z,97.51
2023-04-12T03:04:02.735Z,97.51
2023-04-12T03:06:30.721Z,97.75
2023-04-12T03:08:58.340Z,97.88
2023-04-12T03:11:25.186Z,98.10
2023-04-12T03:13:52.844Z,98.04
2023-04-12T03:16:26.345Z,98.13
2023-04-12T03:18:53.314Z,99.03
2023-04-12T03:21:20.364Z,99.27
2023-04-12T03:23:47.229Z,99.48
2023-04-12T03:26:14.406Z,99.22
2023-04-12T03:28:41.661Z,99.84
2023-04-12T03:31:08.983Z,99.66
2023-04-12T03:33:36.243Z,99.77
2023-04-12T03:36:03.480Z,99.87
2023-04-12T03:38:30.700Z,100.00
2023-04-12T03:40:57.620Z,100.00
2023-04-12T03:43:24.478Z,100.00
2023-04-12T03:45:51.720Z,100.00
2023-04-12T03:48:18.674Z,100.00
2023-04-12T03:50:45.727Z,100.00
2023-04-12T03:53:12.887Z,100.00
2023-04-12T03:55:39.790Z,100.00
2023-04-12T03:58:06.865Z,100.00
2023-04-12T04:00:34.037Z,100.00
2023-04-12T04:03:03.775Z,100.00
2023-04-12T04:05:31.596Z,100.00
2023-04-12T04:08:02.826Z,100.00
2023-04-12T04:10:30.088Z,100.00
2023-04-12T04:12:57.041Z,100.00
2023-04-12T04:15:26.092Z,100.00
2023-04-12T04:17:53.076Z,100.00
2023-04-12T04:20:20.800Z,100.00
2023-04-12T04:22:50.345Z,100.00
2023-04-12T04:25:17.253Z,100.00
2023-04-12T04:27:47.386Z,100.00
2023-04-12T04:30:15.543Z,100.00
2023-04-12T04:32:43.425Z,100.00
2023-04-12T04:35:10.393Z,100.00
2023-04-12T04:37:37.383Z,100.00
2023-04-12T04:40:24.396Z,100.00
2023-04-12T04:42:58.094Z,100.00
2023-04-12T04:45:27.068Z,100.00
2023-04-12T04:47:57.264Z,100.00
2023-04-12T04:50:26.920Z,100.00
2023-04-12T04:52:54.160Z,100.00
2023-04-12T04:55:28.115Z,100.00
2023-04-12T04:57:54.968Z,100.00
2023-04-12T05:00:22.072Z,100.00
2023-04-12T05:02:49.040Z,100.00
2023-04-12T05:05:16.262Z,100.00
2023-04-12T05:07:43.753Z,100.00
2023-04-12T05:10:11.784Z,100.00
2023-04-12T05:12:38.826Z,100.00
2023-04-12T05:15:11.587Z,100.00
2023-04-12T05:17:39.095Z,100.00
2023-04-12T05:20:08.628Z,100.00
2023-04-12T05:22:35.935Z,100.00
2023-04-12T05:25:04.335Z,100.00
2023-04-12T05:27:31.474Z,100.00
2023-04-12T05:29:58.594Z,100.00
2023-04-12T05:32:26.410Z,100.00
2023-04-12T05:34:53.385Z,100.00
2023-04-12T05:37:20.649Z,100.00
2023-04-12T05:39:47.505Z,100.00
2023-04-12T05:42:14.361Z,100.00
2023-04-12T05:44:41.812Z,100.00
2023-04-12T05:47:08.728Z,100.00
2023-04-12T05:49:35.803Z,100.00
2023-04-12T05:52:03.902Z,100.00
2023-04-12T05:54:31.130Z,100.00
2023-04-12T05:56:58.077Z,100.00
2023-04-12T05:59:24.965Z,100.00
2023-04-12T06:01:51.892Z,100.00
2023-04-12T06:04:19.045Z,100.00
2023-04-12T06:06:46.126Z,100.00
2023-04-12T06:09:13.465Z,100.00
2023-04-12T06:11:40.408Z,100.00
2023-04-12T06:14:08.040Z,100.00
2023-04-12T06:16:36.289Z,100.00
2023-04-12T06:19:03.325Z,99.83
2023-04-12T06:21:30.306Z,99.16
2023-04-12T06:23:57.272Z,98.62
2023-04-12T06:26:24.502Z,97.75
2023-04-12T06:28:54.598Z,97.35
2023-04-12T06:31:21.892Z,96.37
2023-04-12T06:33:50.574Z,95.40
2023-04-12T06:36:17.812Z,94.73
2023-04-12T06:38:44.766Z,93.90
2023-04-12T06:41:12.205Z,92.57
2023-04-12T06:43:39.119Z,91.96
2023-04-12T06:46:06.625Z,91.32
2023-04-12T06:48:33.776Z,90.65
2023-04-12T06:51:00.719Z,89.45
2023-04-12T06:53:27.648Z,88.23
2023-04-12T06:55:54.584Z,88.79
2023-04-12T06:58:21.477Z,89.15
2023-04-12T07:00:48.498Z,89.59
2023-04-12T07:03:15.629Z,88.70
2023-04-12T07:05:47.597Z,87.40
2023-04-12T07:08:14.536Z,87.41
2023-04-12T07:10:41.877Z,87.03
2023-04-12T07:13:08.788Z,86.47
2023-04-12T07:15:35.745Z,86.90
2023-04-12T07:18:02.726Z,87.42
2023-04-12T07:20:29.671Z,86.19
2023-04-12T07:22:56.907Z,85.22
2023-04-12T07:25:23.857Z,84.95
2023-04-12T07:27:51.782Z,84.21
2023-04-12T07:30:19.102Z,84.34
2023-04-12T07:32:46.249Z,83.88
2023-04-12T07:35:13.350Z,83.76
2023-04-12T07:37:40.526Z,82.84
2023-04-12T07:40:08.261Z,82.61
2023-04-12T07:42:35.162Z,82.60
2023-04-12T07:45:02.090Z,80.90
2023-04-12T07:47:29.170Z,80.52
2023-04-12T07:49:57.696Z,80.31
2023-04-12T07:52:25.458Z,78.96
2023-04-12T07:54:52.320Z,77.79
2023-04-12T07:57:19.159Z,76.86
2023-04-12T07:59:46.029Z,76.18
2023-04-12T08:02:13.257Z,76.20
2023-04-12T08:04:44.460Z,76.00
2023-04-12T08:07:11.732Z,75.69
2023-04-12T08:09:39.025Z,75.04
2023-04-12T08:12:06.158Z,74.07
2023-04-12T08:14:33.061Z,73.32
2023-04-12T08:16:59.934Z,71.79
2023-04-12T08:19:27.493Z,72.33
2023-04-12T08:21:54.834Z,71.68
2023-04-12T08:24:21.788Z,71.26
2023-04-12T08:26:48.699Z,70.28
2023-04-12T08:29:16.111Z,70.31
2023-04-12T08:31:43.222Z,71.09
2023-04-12T08:34:10.271Z,70.36
2023-04-12T08:36:37.203Z,70.85
2023-04-12T08:39:04.246Z,70.88
2023-04-12T08:41:31.586Z,70.34
2023-04-12T08:43:59.971Z,69.93
2023-04-12T08:46:28.450Z,69.35
2023-04-12T08:48:55.607Z,67.98
2023-04-12T08:51:23.130Z,67.35
2023-04-12T08:53:51.210Z,68.30
2023-04-12T08:56:19.444Z,68.42
2023-04-12T08:58:51.480Z,68.34
2023-04-12T09:01:21.220Z,69.11
2023-04-12T09:03:48.494Z,68.23
2023-04-12T09:06:15.948Z,67.95
2023-04-12T09:08:57.136Z,66.64
2023-04-12T09:11:27.529Z,68.27
2023-04-12T09:13:58.949Z,69.48
2023-04-12T09:16:41.523Z,70.03
2023-04-12T09:19:10.109Z,70.03
2023-04-12T09:21:37.401Z,70.43
2023-04-12T09:24:13.362Z,70.67
2023-04-12T09:26:41.054Z,70.40
2023-04-12T09:29:24.937Z,70.71
2023-04-12T09:31:58.504Z,71.62
2023-04-12T09:34:26.644Z,71.52
2023-04-12T09:36:54.812Z,71.92
2023-04-12T09:39:34.538Z,72.70
2023-04-12T09:42:25.445Z,73.01
2023-04-12T09:44:58.950Z,73.13
2023-04-12T09:47:40.563Z,74.00
2023-04-12T09:50:10.231Z,73.88
2023-04-12T09:52:41.045Z,72.78
2023-04-12T09:55:11.961Z,73.81
2023-04-12T09:57:42.429Z,72.97
2023-04-12T10:00:18.882Z,72.38
2023-04-12T10:02:52.779Z,73.23
2023-04-12T10:05:28.367Z,73.78
2023-04-12T10:07:57.011Z,72.71
2023-04-12T10:10:24.336Z,71.95
2023-04-12T10:12:51.878Z,69.94
2023-04-12T10:15:21.461Z,69.57
2023-04-12T10:17:52.760Z,69.27
2023-04-12T10:20:23.354Z,70.51
2023-04-12T10:22:53.542Z,71.67
2023-04-12T10:25:24.046Z,73.73
2023-04-12T10:27:51.577Z,74.96
2023-04-12T10:30:38.748Z,77.12
2023-04-12T10:33:05.811Z,79.85
2023-04-12T10:36:01.150Z,81.25
2023-04-12T10:38:32.979Z,83.95
2023-04-12T10:41:16.006Z,84.64
2023-04-12T10:43:46.383Z,84.68
2023-04-12T10:46:38.881Z,86.07
2023-04-12T10:49:14.641Z,86.67
2023-04-12T10:52:02.074Z,85.19
2023-04-12T10:54:29.817Z,85.36
2023-04-12T10:56:57.700Z,84.46
2023-04-12T10:59:31.426Z,82.69
2023-04-12T11:02:12.765Z,82.67
2023-04-12T11:05:10.540Z,81.54
2023-04-12T11:07:43.246Z,80.10
2023-04-12T11:10:20.303Z,79.25
2023-04-12T11:12:54.888Z,78.82
2023-04-12T11:15:25.989Z,78.32
2023-04-12T11:17:57.959Z,79.48
2023-04-12T11:20:30.143Z,82.25
2023-04-12T11:22:57.394Z,83.61
2023-04-12T11:25:24.873Z,84.78
2023-04-12T11:27:55.005Z,86.19
2023-04-12T11:30:23.764Z,86.28
2023-04-12T11:32:50.931Z,88.01
2023-04-12T11:35:20.679Z,87.03
2023-04-12T11:37:48.095Z,85.69
2023-04-12T11:40:15.299Z,85.69
2023-04-12T11:42:42.737Z,84.30
2023-04-12T11:45:17.200Z,81.67
2023-04-12T11:47:46.837Z,83.72
2023-04-12T11:50:13.939Z,83.52
2023-04-12T11:52:41.513Z,83.11
2023-04-12T11:55:11.438Z,84.09
2023-04-12T11:57:40.048Z,84.95
2023-04-12T12:00:07.864Z,83.47
2023-04-12T12:02:43.690Z,82.87
2023-04-12T12:05:17.048Z,81.99
2023-04-12T12:07:44.402Z,82.56
2023-04-12T12:10:16.404Z,84.07
2023-04-12T12:12:48.329Z,85.89
2023-04-12T12:15:16.811Z,86.40
2023-04-12T12:17:43.999Z,86.79
2023-04-12T12:20:21.862Z,88.46
2023-04-12T12:22:49.486Z,88.65
2023-04-12T12:25:19.352Z,89.17
2023-04-12T12:27:50.629Z,90.24
2023-04-12T12:30:20.548Z,92.62
2023-04-12T12:32:52.642Z,93.31
2023-04-12T12:35:19.711Z,92.18
2023-04-12T12:37:52.801Z,93.42
2023-04-12T12:40:31.762Z,93.82
2023-04-12T12:42:58.899Z,93.00
2023-04-12T12:45:28.406Z,91.02
2023-04-12T12:47:58.927Z,91.02
2023-04-12T12:50:34.537Z,90.63
2023-04-12T12:53:02.514Z,89.01
2023-04-12T12:55:31.341Z,88.62
2023-04-12T13:00:30.025Z,88.56
2023-04-12T13:02:57.285Z,88.42
2023-04-12T13:05:24.698Z,86.95
2023-04-12T13:07:51.592Z,85.00
2023-04-12T13:10:18.488Z,83.55
2023-04-12T13:12:46.250Z,83.58
2023-04-12T13:17:44.165Z,83.52
2023-04-12T13:20:11.355Z,82.98
2023-04-12T13:22:38.337Z,83.52
2023-04-12T13:25:05.859Z,83.62
2023-04-12T13:27:33.198Z,83.85
2023-04-12T13:30:00.505Z,85.11
2023-04-12T13:32:27.700Z,86.81
2023-04-12T13:34:54.760Z,88.20
2023-04-12T13:37:21.679Z,89.09
2023-04-12T13:39:50.567Z,89.72
2023-04-12T13:42:17.528Z,91.40
2023-04-12T13:44:44.598Z,92.11
2023-04-12T13:47:11.694Z,92.87
2023-04-12T13:49:38.754Z,93.49
2023-04-12T13:52:06.035Z,93.88
2023-04-12T13:54:33.309Z,93.67
2023-04-12T13:57:00.475Z,94.45
2023-04-12T13:59:27.375Z,95.75
2023-04-12T14:01:54.824Z,95.87
2023-04-12T14:04:22.307Z,96.01
2023-04-12T14:06:49.791Z,96.66
2023-04-12T14:09:30.289Z,96.94
2023-04-12T14:11:59.210Z,97.25
2023-04-12T14:14:27.729Z,97.47
2023-04-12T14:16:59.146Z,97.90
2023-04-12T14:19:26.706Z,98.72
2023-04-12T14:21:53.937Z,99.09
2023-04-12T14:24:22.206Z,98.66
2023-04-12T14:26:50.430Z,97.63
2023-04-12T14:29:17.817Z,97.29
2023-04-12T14:31:44.932Z,97.87
2023-04-12T14:34:13.758Z,96.25
2023-04-12T14:36:41.188Z,95.04
2023-04-12T14:39:11.640Z,93.90
2023-04-12T14:41:40.769Z,91.71
2023-04-12T14:44:07.629Z,90.46
2023-04-12T14:46:34.569Z,91.39
2023-04-12T14:49:01.782Z,90.77
2023-04-12T14:51:29.856Z,88.76
2023-04-12T14:53:57.581Z,84.87
2023-04-12T14:56:28.855Z,80.84
2023-04-12T14:58:57.578Z,80.86
2023-04-12T15:01:26.099Z,81.03
2023-04-12T15:03:53.878Z,81.93
2023-04-12T15:06:26.198Z,81.43
2023-04-12T15:08:57.561Z,82.74
2023-04-12T15:11:27.470Z,80.82
2023-04-12T15:13:55.677Z,79.50
2023-04-12T15:16:23.431Z,76.81
2023-04-12T15:18:52.052Z,77.18
2023-04-12T15:21:19.504Z,76.30
2023-04-12T15:23:47.556Z,76.24
2023-04-12T15:26:14.636Z,80.09
2023-04-12T15:28:42.497Z,83.25
2023-04-12T15:31:09.850Z,85.40
2023-04-12T15:33:37.523Z,86.45
2023-04-12T15:36:05.743Z,87.74
2023-04-12T15:38:32.758Z,87.43
2023-04-12T15:41:01.710Z,88.25
2023-04-12T15:43:29.242Z,87.64
2023-04-12T15:45:57.286Z,87.44
2023-04-12T15:48:25.960Z,88.94
2023-04-12T15:50:56.026Z,87.66
2023-04-12T15:53:27.749Z,85.71
2023-04-12T15:55:55.368Z,83.89
2023-04-12T15:58:27.507Z,80.54
2023-04-12T16:00:54.983Z,80.59
2023-04-12T16:03:27.017Z,79.83
2023-04-12T16:05:54.456Z,77.66
2023-04-12T16:08:22.869Z,74.77
2023-04-12T16:10:51.581Z,73.16
2023-04-12T16:13:18.910Z,72.65
2023-04-12T16:15:47.374Z,71.43
2023-04-12T16:18:14.616Z,70.88
2023-04-12T16:20:42.174Z,70.13
2023-04-12T16:23:10.952Z,67.70
2023-04-12T16:25:38.714Z,69.18
2023-04-12T16:28:08.019Z,70.29
2023-04-12T16:30:36.219Z,69.71
2023-04-12T16:33:04.420Z,70.14
2023-04-12T16:35:32.826Z,71.65
2023-04-12T16:38:03.350Z,71.13
2023-04-12T16:40:31.166Z,70.42
2023-04-12T16:42:58.633Z,67.55
2023-04-12T16:45:26.692Z,65.71
2023-04-12T16:47:54.650Z,65.99
2023-04-12T16:50:24.153Z,67.20
2023-04-12T16:52:51.913Z,67.69
2023-04-12T16:55:19.034Z,68.07
2023-04-12T16:57:46.558Z,67.93
2023-04-12T17:00:23.008Z,67.87
2023-04-12T17:02:52.619Z,69.13
2023-04-12T17:05:22.161Z,69.37
2023-04-12T17:07:54.905Z,70.02
2023-04-12T17:10:24.825Z,70.82
2023-04-12T17:12:56.055Z,70.99
2023-04-12T17:15:23.754Z,70.46
2023-04-12T17:18:03.290Z,70.57
2023-04-12T17:20:32.273Z,71.72
2023-04-12T17:23:00.892Z,71.04
2023-04-12T17:25:33.567Z,71.34
2023-04-12T17:28:12.090Z,72.14
2023-04-12T17:30:40.805Z,71.55
2023-04-12T17:33:09.136Z,72.41
2023-04-12T17:35:37.630Z,72.22
2023-04-12T17:38:05.322Z,72.22
2023-04-12T17:40:36.281Z,71.81
2023-04-12T17:43:04.435Z,72.13
2023-04-12T17:45:32.446Z,73.16
2023-04-12T17:48:00.124Z,73.35
2023-04-12T17:50:27.411Z,73.92
2023-04-12T17:52:56.764Z,74.41
2023-04-12T17:55:26.947Z,75.17
2023-04-12T17:57:54.540Z,75.55
2023-04-12T18:00:23.955Z,74.58
2023-04-12T18:02:51.749Z,74.65
2023-04-12T18:05:19.243Z,74.77
2023-04-12T18:07:46.292Z,75.21
2023-04-12T18:10:16.285Z,75.83
2023-04-12T18:12:45.413Z,76.15
2023-04-12T18:15:12.947Z,76.71
2023-04-12T18:17:40.114Z,77.64
2023-04-12T18:20:10.964Z,78.23
2023-04-12T18:22:39.324Z,79.15
2023-04-12T18:25:08.445Z,79.54
2023-04-12T18:27:36.056Z,80.03
2023-04-12T18:30:03.626Z,80.37
2023-04-12T18:32:30.994Z,80.78
2023-04-12T18:34:58.164Z,81.51
2023-04-12T18:37:25.212Z,81.98
2023-04-12T18:39:53.460Z,82.13
2023-04-12T18:42:20.611Z,81.89
2023-04-12T18:44:47.803Z,82.13
2023-04-12T18:47:14.729Z,82.46
2023-04-12T18:49:41.721Z,82.36
2023-04-12T18:52:08.927Z,82.64
2023-04-12T18:54:35.973Z,82.56
2023-04-12T18:57:03.919Z,83.04
2023-04-12T18:59:31.414Z,83.11
2023-04-12T19:01:58.562Z,83.19
2023-04-12T19:04:25.697Z,83.52
2023-04-12T19:06:53.376Z,83.52
2023-04-12T19:09:20.704Z,83.80
2023-04-12T19:11:47.772Z,84.16
2023-04-12T19:14:14.999Z,84.05
2023-04-12T19:16:42.093Z,84.24
2023-04-12T19:19:09.098Z,84.85
2023-04-12T19:21:36.543Z,85.24
2023-04-12T19:24:03.985Z,85.47
2023-04-12T19:26:32.722Z,85.99
2023-04-12T19:28:59.946Z,86.61
2023-04-12T19:31:27.327Z,87.41
2023-04-12T19:33:56.154Z,88.82
2023-04-12T19:36:26.153Z,88.54
2023-04-12T19:38:53.233Z,89.04
2023-04-12T19:41:20.967Z,89.84
2023-04-12T19:43:48.086Z,89.76
2023-04-12T19:46:16.405Z,90.97
2023-04-12T19:48:43.510Z,90.17
2023-04-12T19:51:10.577Z,90.09
2023-04-12T19:53:37.831Z,90.31
2023-04-12T19:56:05.375Z,91.30
2023-04-12T19:58:32.541Z,91.42
2023-04-12T20:01:03.064Z,92.16
2023-04-12T20:03:30.696Z,92.75
2023-04-12T20:06:04.403Z,93.15
2023-04-12T20:08:32.338Z,93.55
2023-04-12T20:11:00.747Z,93.59
2023-04-12T20:13:29.015Z,93.58
2023-04-12T20:15:56.727Z,93.65
2023-04-12T20:18:24.774Z,93.51
2023-04-12T20:20:53.666Z,93.74
2023-04-12T20:23:20.848Z,93.38
2023-04-12T20:25:49.537Z,93.19
2023-04-12T20:28:16.984Z,93.59
2023-04-12T20:30:47.271Z,93.75
2023-04-12T20:33:15.552Z,93.79
2023-04-12T20:35:42.919Z,93.51
2023-04-12T20:38:10.307Z,93.76
2023-04-12T20:40:38.234Z,93.70
2023-04-12T20:43:06.309Z,93.71
2023-04-12T20:45:35.702Z,94.04
2023-04-12T20:48:04.410Z,95.03
2023-04-12T20:50:34.643Z,94.88
2023-04-12T20:53:02.922Z,94.81
2023-04-12T20:55:33.158Z,94.68
2023-04-12T20:58:01.549Z,94.65
2023-04-12T21:00:29.923Z,95.19
2023-04-12T21:02:58.439Z,94.68
2023-04-12T21:05:27.649Z,94.69
2023-04-12T21:07:55.129Z,94.42
2023-04-12T21:10:22.490Z,94.38
2023-04-12T21:12:50.401Z,94.54
2023-04-12T21:15:22.235Z,94.73
2023-04-12T21:17:50.942Z,95.11
2023-04-12T21:20:18.771Z,95.56
2023-04-12T21:22:48.027Z,95.14
2023-04-12T21:25:17.050Z,96.11
2023-04-12T21:27:46.609Z,95.65
2023-04-12T21:30:14.625Z,96.12
2023-04-12T21:32:42.347Z,96.13
2023-04-12T21:35:11.394Z,96.40
2023-04-12T21:37:39.599Z,96.60
2023-04-12T21:40:12.967Z,96.53
2023-04-12T21:42:41.261Z,97.16
2023-04-12T21:45:10.062Z,97.08
2023-04-12T21:47:39.889Z,97.40
2023-04-12T21:50:10.993Z,97.42
2023-04-12T21:52:38.691Z,98.17
2023-04-12T21:55:06.170Z,98.23
2023-04-12T21:57:34.545Z,98.63
2023-04-12T22:00:05.497Z,98.47
2023-04-12T22:02:32.744Z,98.93
2023-04-12T22:04:59.803Z,99.10
2023-04-12T22:07:26.963Z,99.51
2023-04-12T22:09:53.989Z,99.61
2023-04-12T22:12:21.438Z,100.00
2023-04-12T22:14:50.140Z,99.92
2023-04-12T22:17:18.978Z,100.00
2023-04-12T22:19:46.342Z,100.00
2023-04-12T22:22:15.671Z,100.00
2023-04-12T22:24:42.849Z,100.00
2023-04-12T22:27:09.787Z,100.00
2023-04-12T22:29:38.002Z,100.00
2023-04-12T22:32:05.201Z,100.00
2023-04-12T22:34:32.716Z,100.00
2023-04-12T22:36:59.626Z,99.75
2023-04-12T22:39:27.142Z,99.46
2023-04-12T22:41:57.651Z,99.06
2023-04-12T22:44:26.468Z,98.91
2023-04-12T22:46:56.926Z,98.43
2023-04-12T22:49:28.533Z,98.03
2023-04-12T22:51:56.066Z,98.06
2023-04-12T22:54:24.951Z,98.31
2023-04-12T22:56:52.228Z,97.90
2023-04-12T22:59:20.367Z,98.26
2023-04-12T23:01:47.760Z,97.85
2023-04-12T23:04:16.125Z,98.30
2023-04-12T23:06:44.277Z,98.48
2023-04-12T23:09:12.713Z,98.06
2023-04-12T23:11:42.248Z,98.63
2023-04-12T23:14:10.083Z,98.62
2023-04-12T23:16:42.644Z,98.36
2023-04-12T23:19:12.793Z,98.70
2023-04-12T23:21:40.830Z,98.40
2023-04-12T23:24:08.689Z,97.85
2023-04-12T23:26:36.170Z,97.35
2023-04-12T23:29:04.607Z,97.71
2023-04-12T23:31:32.539Z,97.42
2023-04-12T23:34:03.588Z,97.08
2023-04-12T23:36:30.912Z,96.32
2023-04-12T23:39:00.902Z,96.27
2023-04-12T23:41:28.082Z,96.29
2023-04-12T23:43:55.337Z,96.17
2023-04-12T23:46:22.763Z,95.89
2023-04-12T23:48:49.772Z,95.72
2023-04-12T23:51:17.253Z,95.56
2023-04-12T23:53:44.171Z,95.41
2023-04-12T23:56:11.427Z,95.11
2023-04-12T23:58:38.703Z,95.04
